Time,TemperatureF,DewpointF,PressureIn,WindDirection,WindDirectionDegrees,WindSpeedMPH,WindSpeedGustMPH,Humidity,HourlyPrecipIn,Conditions,Clouds,dailyrainin,SoftwareType,DateUTC
2013-02-12 00:00:00,44.2,33.2,30.14,East,90,0.0,0.0,65,0.00,,,0.00,WUHU21623XXSP,2013-02-12 06:00:00,
2013-02-12 00:05:00,44.2,33.6,30.14,East,90,0.0,0.0,66,0.00,,,0.00,WUHU21623XXSP,2013-02-12 06:05:00,
2013-02-12 00:10:00,44.2,33.6,30.14,East,90,0.0,0.0,66,0.00,,,0.00,WUHU21623XXSP,2013-02-12 06:10:00,
2013-02-12 00:15:00,44.1,33.4,30.14,East,90,0.0,0.0,66,0.00,,,0.00,WUHU21623XXSP,2013-02-12 06:15:00,
2013-02-12 00:20:00,44.1,33.4,30.13,East,90,0.0,0.0,66,0.00,,,0.00,WUHU21623XXSP,2013-02-12 06:20:00,
2013-02-12 00:25:00,44.1,33.8,30.14,East,90,0.0,0.0,67,0.00,,,0.00,WUHU21623XXSP,2013-02-12 06:25:00,
2013-02-12 00:30:00,44.1,33.8,30.14,East,90,0.0,0.0,67,0.00,,,0.00,WUHU21623XXSP,2013-02-12 06:30:00,
2013-02-12 00:35:00,43.9,34.0,30.13,East,90,0.0,0.0,68,0.00,,,0.00,WUHU21623XXSP,2013-02-12 06:35:00,
2013-02-12 00:40:00,44.1,34.2,30.13,East,90,0.0,0.0,68,0.00,,,0.00,WUHU21623XXSP,2013-02-12 06:40:00,
2013-02-12 00:45:00,44.1,34.2,30.12,East,90,0.0,0.0,68,0.00,,,0.00,WUHU21623XXSP,2013-02-12 06:45:00,
2013-02-12 00:50:00,43.9,34.4,30.15,NNW,337,0.0,0.9,69,0.00,,,0.00,WUHU21623XXSP,2013-02-12 06:50:00,
2013-02-12 00:55:00,43.9,34.4,30.14,NNW,337,0.0,0.9,69,0.00,,,0.00,WUHU21623XXSP,2013-02-12 06:55:00,
2013-02-12 01:00:00,43.9,34.4,30.13,NNW,337,0.0,0.0,69,0.00,,,0.00,WUHU21623XXSP,2013-02-12 07:00:00,
2013-02-12 01:05:00,43.7,34.2,30.13,East,90,0.9,3.6,69,0.00,,,0.00,WUHU21623XXSP,2013-02-12 07:05:00,
2013-02-12 01:10:00,43.7,34.2,30.12,East,90,0.0,3.6,69,0.00,,,0.00,WUHU21623XXSP,2013-02-12 07:10:00,
2013-02-12 01:15:00,43.7,34.2,30.14,East,90,0.0,1.3,69,0.00,,,0.00,WUHU21623XXSP,2013-02-12 07:15:00,
2013-02-12 01:20:00,43.5,34.1,30.15,East,90,0.0,0.0,69,0.00,,,0.00,WUHU21623XXSP,2013-02-12 07:20:00,
2013-02-12 01:25:00,43.5,34.4,30.15,East,90,0.0,0.0,70,0.00,,,0.00,WUHU21623XXSP,2013-02-12 07:25:00,
2013-02-12 01:30:00,43.5,34.4,30.15,East,90,0.0,0.0,70,0.00,,,0.00,WUHU21623XXSP,2013-02-12 07:30:00,
2013-02-12 01:35:00,43.5,34.4,30.15,East,90,0.0,0.0,70,0.00,,,0.00,WUHU21623XXSP,2013-02-12 07:35:00,
2013-02-12 01:40:00,43.5,34.4,30.15,East,90,0.0,0.0,70,0.00,,,0.00,WUHU21623XXSP,2013-02-12 07:40:00,
2013-02-12 01:45:00,43.3,34.3,30.15,East,90,0.0,0.0,70,0.00,,,0.00,WUHU21623XXSP,2013-02-12 07:45:00,
2013-02-12 01:50:00,43.3,34.3,30.15,East,90,0.0,0.0,70,0.00,,,0.00,WUHU21623XXSP,2013-02-12 07:50:00,
2013-02-12 01:55:00,43.2,34.1,30.15,East,90,0.0,0.0,70,0.00,,,0.00,WUHU21623XXSP,2013-02-12 07:55:00,
2013-02-12 02:00:00,43.0,34.0,30.15,East,90,0.0,0.0,70,0.00,,,0.00,WUHU21623XXSP,2013-02-12 08:00:00,
2013-02-12 02:05:00,43.0,34.0,30.14,East,90,0.0,0.0,70,0.00,,,0.00,WUHU21623XXSP,2013-02-12 08:05:00,
2013-02-12 02:10:00,42.8,33.8,30.14,East,90,0.0,0.0,70,0.00,,,0.00,WUHU21623XXSP,2013-02-12 08:10:00,
2013-02-12 02:15:00,42.4,33.4,30.13,East,90,0.0,0.0,70,0.00,,,0.00,WUHU21623XXSP,2013-02-12 08:15:00,
2013-02-12 02:20:00,42.4,33.4,30.13,East,90,0.0,0.0,70,0.00,,,0.00,WUHU21623XXSP,2013-02-12 08:20:00,
2013-02-12 02:25:00,42.3,33.3,30.12,East,90,0.0,0.0,70,0.00,,,0.00,WUHU21623XXSP,2013-02-12 08:25:00,
2013-02-12 02:30:00,42.1,33.1,30.12,East,90,0.0,0.0,70,0.00,,,0.00,WUHU21623XXSP,2013-02-12 08:30:00,
2013-02-12 02:35:00,41.9,32.9,30.13,East,90,0.0,0.0,70,0.00,,,0.00,WUHU21623XXSP,2013-02-12 08:35:00,
2013-02-12 02:40:00,41.9,33.2,30.13,East,90,0.0,0.0,71,0.00,,,0.00,WUHU21623XXSP,2013-02-12 08:40:00,
2013-02-12 02:45:00,41.7,33.4,30.12,East,90,0.0,0.0,72,0.00,,,0.00,WUHU21623XXSP,2013-02-12 08:45:00,
2013-02-12 02:50:00,41.5,33.2,30.14,East,90,0.0,0.0,72,0.00,,,0.00,WUHU21623XXSP,2013-02-12 08:50:00,
2013-02-12 02:55:00,41.5,33.2,30.15,East,90,0.0,0.0,72,0.00,,,0.00,WUHU21623XXSP,2013-02-12 08:55:00,
2013-02-12 03:00:00,41.4,33.3,30.14,East,90,0.0,0.0,73,0.00,,,0.00,WUHU21623XXSP,2013-02-12 09:00:00,
2013-02-12 03:05:00,41.4,33.3,30.14,East,90,0.0,0.0,73,0.00,,,0.00,WUHU21623XXSP,2013-02-12 09:05:00,
2013-02-12 03:10:00,41.4,33.0,30.13,East,90,0.0,0.0,72,0.00,,,0.00,WUHU21623XXSP,2013-02-12 09:10:00,
2013-02-12 03:15:00,41.0,32.6,30.13,East,90,0.0,0.0,72,0.00,,,0.00,WUHU21623XXSP,2013-02-12 09:15:00,
2013-02-12 03:20:00,40.5,32.1,30.14,East,90,0.0,0.0,72,0.00,,,0.00,WUHU21623XXSP,2013-02-12 09:20:00,
2013-02-12 03:25:00,40.5,32.1,30.14,East,90,0.0,0.0,72,0.00,,,0.00,WUHU21623XXSP,2013-02-12 09:25:00,
2013-02-12 03:30:00,39.9,31.6,30.14,East,90,0.0,0.0,72,0.00,,,0.00,WUHU21623XXSP,2013-02-12 09:30:00,
2013-02-12 03:35:00,39.7,31.4,30.15,East,90,0.0,0.0,72,0.00,,,0.00,WUHU21623XXSP,2013-02-12 09:35:00,
2013-02-12 03:40:00,39.7,31.4,30.15,East,90,0.0,0.0,72,0.00,,,0.00,WUHU21623XXSP,2013-02-12 09:40:00,
2013-02-12 03:45:00,39.7,31.4,30.13,East,90,0.0,0.0,72,0.00,,,0.00,WUHU21623XXSP,2013-02-12 09:45:00,
2013-02-12 03:50:00,39.9,31.9,30.13,East,90,0.0,0.0,73,0.00,,,0.00,WUHU21623XXSP,2013-02-12 09:50:00,
2013-02-12 03:55:00,39.9,32.3,30.12,East,90,0.0,0.0,74,0.00,,,0.00,WUHU21623XXSP,2013-02-12 09:55:00,
2013-02-12 04:00:00,39.9,32.3,30.12,East,90,0.0,0.0,74,0.00,,,0.00,WUHU21623XXSP,2013-02-12 10:00:00,
2013-02-12 04:05:00,39.7,32.1,30.12,East,90,0.0,0.0,74,0.00,,,0.00,WUHU21623XXSP,2013-02-12 10:05:00,
2013-02-12 04:10:00,39.7,32.1,30.12,East,90,0.0,0.0,74,0.00,,,0.00,WUHU21623XXSP,2013-02-12 10:10:00,
2013-02-12 04:15:00,39.4,32.1,30.12,East,90,0.0,0.0,75,0.00,,,0.00,WUHU21623XXSP,2013-02-12 10:15:00,
2013-02-12 04:20:00,39.4,32.1,30.10,East,90,0.0,0.0,75,0.00,,,0.00,WUHU21623XXSP,2013-02-12 10:20:00,
2013-02-12 04:25:00,39.4,32.1,30.10,East,90,0.0,0.0,75,0.00,,,0.00,WUHU21623XXSP,2013-02-12 10:25:00,
2013-02-12 04:30:00,39.0,31.7,30.10,East,90,0.0,0.0,75,0.00,,,0.00,WUHU21623XXSP,2013-02-12 10:30:00,
2013-02-12 04:35:00,39.0,31.7,30.10,East,90,0.0,0.0,75,0.00,,,0.00,WUHU21623XXSP,2013-02-12 10:35:00,
2013-02-12 04:40:00,38.8,31.9,30.10,East,90,0.0,0.0,76,0.00,,,0.00,WUHU21623XXSP,2013-02-12 10:40:00,
2013-02-12 04:45:00,38.7,31.9,30.09,East,90,0.0,0.0,76,0.00,,,0.00,WUHU21623XXSP,2013-02-12 10:45:00,
2013-02-12 04:50:00,38.7,31.7,30.09,East,90,0.0,0.0,76,0.00,,,0.00,WUHU21623XXSP,2013-02-12 10:50:00,
2013-02-12 04:55:00,38.5,31.2,30.09,East,90,0.0,0.0,75,0.00,,,0.00,WUHU21623XXSP,2013-02-12 10:55:00,
2013-02-12 05:00:00,38.5,31.2,30.09,East,90,0.0,0.0,75,0.00,,,0.00,WUHU21623XXSP,2013-02-12 11:00:00,
2013-02-12 05:05:00,38.3,31.0,30.09,East,90,0.0,0.0,75,0.00,,,0.00,WUHU21623XXSP,2013-02-12 11:05:00,
2013-02-12 05:10:00,38.3,31.0,30.09,East,90,0.0,0.0,76,0.00,,,0.00,WUHU21623XXSP,2013-02-12 11:10:00,
2013-02-12 05:15:00,38.1,31.2,30.08,East,90,0.0,0.0,76,0.00,,,0.00,WUHU21623XXSP,2013-02-12 11:15:00,
2013-02-12 05:20:00,37.9,31.0,30.08,East,90,1.1,2.5,76,0.00,,,0.00,WUHU21623XXSP,2013-02-12 11:20:00,
2013-02-12 05:25:00,37.8,30.9,30.09,East,90,0.0,2.5,76,0.00,,,0.00,WUHU21623XXSP,2013-02-12 11:25:00,
2013-02-12 05:30:00,37.8,30.9,30.08,East,90,0.0,0.0,76,0.00,,,0.00,WUHU21623XXSP,2013-02-12 11:30:00,
2013-02-12 05:35:00,37.6,30.7,30.08,East,90,0.0,0.0,76,0.00,,,0.00,WUHU21623XXSP,2013-02-12 11:35:00,
2013-02-12 05:40:00,37.4,30.4,30.07,East,90,2.0,2.0,75,0.00,,,0.00,WUHU21623XXSP,2013-02-12 11:40:00,
2013-02-12 05:45:00,37.0,29.8,30.06,East,90,1.1,2.0,75,0.00,,,0.00,WUHU21623XXSP,2013-02-12 11:45:00,
2013-02-12 05:50:00,36.9,29.7,30.06,East,90,0.0,1.8,75,0.00,,,0.00,WUHU21623XXSP,2013-02-12 11:50:00,
2013-02-12 05:55:00,36.5,29.3,30.05,ENE,67,1.8,2.7,75,0.00,,,0.00,WUHU21623XXSP,2013-02-12 11:55:00,
2013-02-12 06:00:00,36.5,29.3,30.04,ENE,67,2.0,2.7,75,0.00,,,0.00,WUHU21623XXSP,2013-02-12 12:00:00,
2013-02-12 06:05:00,36.5,29.3,30.04,ENE,67,2.5,2.7,75,0.00,,,0.00,WUHU21623XXSP,2013-02-12 12:05:00,
2013-02-12 06:10:00,36.5,29.6,30.03,East,90,1.8,2.7,76,0.00,,,0.00,WUHU21623XXSP,2013-02-12 12:10:00,
2013-02-12 06:14:00,36.5,29.6,30.05,ESE,112,2.9,2.9,76,0.00,,,0.00,WUHU21623XXSP,2013-02-12 12:14:00,
2013-02-12 06:19:00,36.9,30.0,30.05,East,90,0.9,2.9,76,0.00,,,0.00,WUHU21623XXSP,2013-02-12 12:19:00,
2013-02-12 06:24:00,36.9,30.0,30.05,East,90,0.0,0.9,76,0.00,,,0.00,WUHU21623XXSP,2013-02-12 12:24:00,
2013-02-12 06:29:00,36.9,30.0,30.05,East,90,0.0,0.0,76,0.00,,,0.00,WUHU21623XXSP,2013-02-12 12:29:00,
2013-02-12 06:34:00,36.9,30.0,30.07,East,90,0.0,0.0,76,0.00,,,0.00,WUHU21623XXSP,2013-02-12 12:34:00,
2013-02-12 06:39:00,36.9,30.0,30.07,East,90,0.0,0.0,76,0.00,,,0.00,WUHU21623XXSP,2013-02-12 12:39:00,
2013-02-12 06:44:00,36.9,30.0,30.08,East,90,0.0,0.0,76,0.00,,,0.00,WUHU21623XXSP,2013-02-12 12:44:00,
2013-02-12 06:49:00,37.0,30.2,30.08,East,90,0.0,0.0,76,0.00,,,0.00,WUHU21623XXSP,2013-02-12 12:49:00,
2013-02-12 06:54:00,37.0,30.2,30.10,East,90,0.0,0.0,76,0.00,,,0.00,WUHU21623XXSP,2013-02-12 12:54:00,
2013-02-12 06:59:00,37.0,30.2,30.12,East,90,0.0,0.0,76,0.00,,,0.00,WUHU21623XXSP,2013-02-12 12:59:00,
2013-02-12 07:04:00,37.0,30.2,30.12,East,90,0.0,0.0,76,0.00,,,0.00,WUHU21623XXSP,2013-02-12 13:04:00,
2013-02-12 07:09:00,36.9,30.0,30.11,East,90,0.0,0.0,76,0.00,,,0.00,WUHU21623XXSP,2013-02-12 13:09:00,
2013-02-12 07:14:00,37.0,30.2,30.11,East,90,0.0,0.0,76,0.00,,,0.00,WUHU21623XXSP,2013-02-12 13:14:00,
2013-02-12 07:19:00,37.0,30.2,30.10,East,90,0.0,0.0,76,0.00,,,0.00,WUHU21623XXSP,2013-02-12 13:19:00,
2013-02-12 07:24:00,37.0,30.2,30.10,East,90,0.0,0.0,76,0.00,,,0.00,WUHU21623XXSP,2013-02-12 13:24:00,
2013-02-12 07:29:00,37.0,30.2,30.09,East,90,0.0,0.0,76,0.00,,,0.00,WUHU21623XXSP,2013-02-12 13:29:00,
2013-02-12 07:34:00,37.0,30.2,30.09,East,90,0.0,0.0,76,0.00,,,0.00,WUHU21623XXSP,2013-02-12 13:34:00,
2013-02-12 07:39:00,37.6,31.0,30.06,East,90,2.0,2.0,77,0.00,,,0.00,WUHU21623XXSP,2013-02-12 13:39:00,
2013-02-12 07:45:00,38.1,31.9,30.06,East,90,0.0,2.0,78,0.00,,,0.00,WUHU21623XXSP,2013-02-12 13:45:00,
2013-02-12 07:50:00,39.4,33.8,30.06,East,90,0.0,1.1,80,0.00,,,0.00,WUHU21623XXSP,2013-02-12 13:50:00,
2013-02-12 07:55:00,39.9,34.3,30.06,East,90,0.0,1.1,80,0.00,,,0.00,WUHU21623XXSP,2013-02-12 13:55:00,
2013-02-12 08:00:00,40.6,34.9,30.05,East,90,0.0,0.0,80,0.00,,,0.00,WUHU21623XXSP,2013-02-12 14:00:00,
2013-02-12 08:05:00,41.4,35.6,30.06,East,90,0.0,0.0,80,0.00,,,0.00,WUHU21623XXSP,2013-02-12 14:05:00,
2013-02-12 08:10:00,41.7,35.8,30.07,East,90,0.0,0.0,80,0.00,,,0.00,WUHU21623XXSP,2013-02-12 14:10:00,
2013-02-12 08:15:00,42.1,35.8,30.07,East,90,1.3,1.3,79,0.00,,,0.00,WUHU21623XXSP,2013-02-12 14:15:00,
2013-02-12 08:20:00,43.0,36.6,30.07,SE,135,0.0,1.6,78,0.00,,,0.00,WUHU21623XXSP,2013-02-12 14:20:00,
2013-02-12 08:25:00,43.7,36.9,30.07,SE,135,0.0,1.6,77,0.00,,,0.00,WUHU21623XXSP,2013-02-12 14:25:00,
2013-02-12 08:30:00,44.6,37.5,30.06,ENE,67,3.1,3.1,76,0.00,,,0.00,WUHU21623XXSP,2013-02-12 14:30:00,
2013-02-12 08:35:00,46.0,38.6,30.06,SE,135,0.0,5.1,75,0.00,,,0.00,WUHU21623XXSP,2013-02-12 14:35:00,
2013-02-12 08:40:00,47.3,39.7,30.06,East,90,1.6,5.1,75,0.00,,,0.00,WUHU21623XXSP,2013-02-12 14:40:00,
2013-02-12 08:45:00,48.4,40.0,30.04,ENE,67,2.7,3.8,73,0.00,,,0.00,WUHU21623XXSP,2013-02-12 14:45:00,
2013-02-12 08:50:00,49.5,39.7,30.04,East,90,0.4,3.8,69,0.00,,,0.00,WUHU21623XXSP,2013-02-12 14:50:00,
2013-02-12 08:55:00,49.6,38.7,30.03,ENE,67,3.1,3.4,66,0.00,,,0.00,WUHU21623XXSP,2013-02-12 14:55:00,
2013-02-12 09:00:00,49.6,38.3,30.03,ENE,67,1.8,4.7,65,0.00,,,0.00,WUHU21623XXSP,2013-02-12 15:00:00,
2013-02-12 09:05:00,50.0,37.9,30.04,ENE,67,0.0,4.7,63,0.00,,,0.00,WUHU21623XXSP,2013-02-12 15:05:00,
2013-02-12 09:10:00,50.4,37.8,30.04,ESE,112,6.3,6.3,62,0.00,,,0.00,WUHU21623XXSP,2013-02-12 15:10:00,
2013-02-12 09:15:00,50.9,37.9,30.04,ENE,67,3.4,9.8,61,0.00,,,0.00,WUHU21623XXSP,2013-02-12 15:15:00,
2013-02-12 09:20:00,51.4,37.1,30.04,ENE,67,6.3,9.8,58,0.00,,,0.00,WUHU21623XXSP,2013-02-12 15:20:00,
2013-02-12 09:25:00,51.4,36.6,30.04,ESE,112,4.5,6.3,57,0.00,,,0.00,WUHU21623XXSP,2013-02-12 15:25:00,
2013-02-12 09:30:00,51.4,36.2,30.04,ENE,67,2.9,4.5,56,0.00,,,0.00,WUHU21623XXSP,2013-02-12 15:30:00,
2013-02-12 09:35:00,51.1,35.4,30.04,NE,45,2.0,4.3,55,0.00,,,0.00,WUHU21623XXSP,2013-02-12 15:35:00,
2013-02-12 09:40:00,50.9,35.2,30.04,ESE,112,2.9,4.3,55,0.00,,,0.00,WUHU21623XXSP,2013-02-12 15:40:00,
2013-02-12 09:45:00,50.7,34.6,30.05,ESE,112,0.0,4.3,54,0.00,,,0.00,WUHU21623XXSP,2013-02-12 15:45:00,
2013-02-12 09:50:00,50.7,35.1,30.06,ESE,112,2.0,3.6,55,0.00,,,0.00,WUHU21623XXSP,2013-02-12 15:50:00,
2013-02-12 09:55:00,50.5,34.9,30.07,ESE,112,5.6,5.6,55,0.00,,,0.00,WUHU21623XXSP,2013-02-12 15:55:00,
2013-02-12 10:00:00,50.5,34.9,30.07,SE,135,5.4,5.6,55,0.00,,,0.00,WUHU21623XXSP,2013-02-12 16:00:00,
2013-02-12 10:05:00,50.5,34.9,30.08,ESE,112,4.5,6.5,55,0.00,,,0.00,WUHU21623XXSP,2013-02-12 16:05:00,
2013-02-12 10:10:00,50.5,34.9,30.08,ESE,112,5.8,6.5,55,0.00,,,0.00,WUHU21623XXSP,2013-02-12 16:10:00,
2013-02-12 10:15:00,50.4,34.3,30.08,SE,135,5.8,5.8,54,0.00,,,0.00,WUHU21623XXSP,2013-02-12 16:15:00,
2013-02-12 10:20:00,50.5,34.5,30.06,East,90,1.6,5.8,54,0.00,,,0.00,WUHU21623XXSP,2013-02-12 16:20:00,
2013-02-12 10:25:00,50.4,33.9,30.05,SE,135,3.8,5.1,53,0.00,,,0.00,WUHU21623XXSP,2013-02-12 16:25:00,
2013-02-12 10:30:00,50.4,34.3,30.05,SE,135,1.8,5.1,54,0.00,,,0.00,WUHU21623XXSP,2013-02-12 16:30:00,
2013-02-12 10:35:00,50.4,34.3,30.05,SE,135,2.5,2.5,54,0.00,,,0.00,WUHU21623XXSP,2013-02-12 16:35:00,
2013-02-12 10:40:00,50.4,34.3,30.05,ESE,112,0.0,2.5,54,0.00,,,0.00,WUHU21623XXSP,2013-02-12 16:40:00,
2013-02-12 10:45:00,50.4,34.8,30.06,East,90,1.8,2.7,55,0.00,,,0.00,WUHU21623XXSP,2013-02-12 16:45:00,
2013-02-12 10:50:00,50.4,34.8,30.06,SE,135,1.8,2.7,55,0.00,,,0.00,WUHU21623XXSP,2013-02-12 16:50:00,
2013-02-12 10:55:00,50.4,34.8,30.06,East,90,2.0,3.4,55,0.00,,,0.00,WUHU21623XXSP,2013-02-12 16:55:00,
2013-02-12 11:00:00,50.4,34.8,30.06,ENE,67,2.2,3.4,55,0.00,,,0.00,WUHU21623XXSP,2013-02-12 17:00:00,
2013-02-12 11:05:00,50.4,34.8,30.03,ENE,67,1.3,2.7,55,0.00,,,0.00,WUHU21623XXSP,2013-02-12 17:05:00,
2013-02-12 11:10:00,50.4,34.8,30.02,ENE,67,2.2,2.2,55,0.00,,,0.00,WUHU21623XXSP,2013-02-12 17:10:00,
2013-02-12 11:15:00,50.4,34.8,30.03,ENE,67,0.0,2.2,55,0.00,,,0.00,WUHU21623XXSP,2013-02-12 17:15:00,
2013-02-12 11:20:00,50.2,34.1,30.05,South,180,0.0,1.1,54,0.00,,,0.00,WUHU21623XXSP,2013-02-12 17:20:00,
2013-02-12 11:25:00,50.2,34.1,30.06,SSE,157,0.0,0.0,54,0.00,,,0.00,WUHU21623XXSP,2013-02-12 17:25:00,
2013-02-12 11:30:00,50.2,34.6,30.07,SSE,157,0.0,0.0,55,0.00,,,0.00,WUHU21623XXSP,2013-02-12 17:30:00,
2013-02-12 11:35:00,50.2,34.6,30.07,SE,135,0.0,0.0,55,0.00,,,0.00,WUHU21623XXSP,2013-02-12 17:35:00,
2013-02-12 11:40:00,50.2,34.6,30.08,SE,135,0.0,0.0,55,0.00,,,0.00,WUHU21623XXSP,2013-02-12 17:40:00,
2013-02-12 11:45:00,50.2,35.0,30.08,SE,135,0.0,0.0,56,0.00,,,0.00,WUHU21623XXSP,2013-02-12 17:45:00,
2013-02-12 11:50:00,50.2,35.0,30.07,SE,135,0.0,0.0,56,0.00,,,0.00,WUHU21623XXSP,2013-02-12 17:50:00,
2013-02-12 11:55:00,50.2,35.5,30.06,ESE,112,0.0,0.0,57,0.00,,,0.00,WUHU21623XXSP,2013-02-12 17:55:00,
2013-02-12 12:00:00,50.4,36.1,30.06,ESE,112,0.0,0.0,58,0.00,,,0.00,WUHU21623XXSP,2013-02-12 18:00:00,
2013-02-12 12:05:00,50.4,36.6,30.06,NE,45,0.0,0.0,59,0.00,,,0.00,WUHU21623XXSP,2013-02-12 18:05:00,
2013-02-12 12:10:00,50.2,36.8,30.05,NE,45,0.0,0.0,60,0.00,,,0.00,WUHU21623XXSP,2013-02-12 18:10:00,
2013-02-12 12:15:00,50.2,37.2,30.03,ENE,67,0.0,0.0,61,0.00,,,0.00,WUHU21623XXSP,2013-02-12 18:15:00,
2013-02-12 12:20:00,50.4,37.4,30.02,NE,45,2.5,2.5,61,0.00,,,0.00,WUHU21623XXSP,2013-02-12 18:20:00,
2013-02-12 12:25:00,50.5,38.0,30.01,ENE,67,2.0,2.5,62,0.00,,,0.00,WUHU21623XXSP,2013-02-12 18:25:00,
2013-02-12 12:30:00,50.7,38.1,29.99,ENE,67,0.0,2.0,62,0.00,,,0.00,WUHU21623XXSP,2013-02-12 18:30:00,
2013-02-12 12:35:00,51.1,37.7,29.99,ESE,112,6.0,6.0,60,0.00,,,0.00,WUHU21623XXSP,2013-02-12 18:35:00,
2013-02-12 12:40:00,51.1,37.2,30.00,ESE,112,1.1,6.0,59,0.00,,,0.00,WUHU21623XXSP,2013-02-12 18:40:00,
2013-02-12 12:45:00,51.3,37.4,30.00,NE,45,0.9,4.9,59,0.00,,,0.00,WUHU21623XXSP,2013-02-12 18:45:00,
2013-02-12 12:50:00,51.3,36.9,30.02,ESE,112,0.0,3.1,58,0.00,,,0.00,WUHU21623XXSP,2013-02-12 18:50:00,
2013-02-12 12:55:00,51.3,36.5,30.03,NE,45,0.0,0.0,57,0.00,,,0.00,WUHU21623XXSP,2013-02-12 18:55:00,
2013-02-12 13:00:00,51.4,36.6,30.02,East,90,2.5,2.5,57,0.00,,,0.00,WUHU21623XXSP,2013-02-12 19:00:00,
2013-02-12 13:05:00,51.8,36.8,30.00,ENE,67,3.6,3.6,57,0.00,,,0.00,WUHU21623XXSP,2013-02-12 19:05:00,
2013-02-12 13:10:00,52.0,37.1,30.00,East,90,0.0,3.6,56,0.00,,,0.00,WUHU21623XXSP,2013-02-12 19:10:00,
2013-02-12 13:15:00,52.2,36.8,30.00,ENE,67,3.1,3.1,56,0.00,,,0.00,WUHU21623XXSP,2013-02-12 19:15:00,
2013-02-12 13:20:00,52.2,36.8,30.00,ESE,112,2.7,3.1,56,0.00,,,0.00,WUHU21623XXSP,2013-02-12 19:20:00,
2013-02-12 13:25:00,52.2,35.9,30.00,East,90,1.3,5.4,54,0.00,,,0.00,WUHU21623XXSP,2013-02-12 19:25:00,
2013-02-12 13:30:00,52.0,35.8,30.00,SE,135,2.0,5.4,54,0.00,,,0.00,WUHU21623XXSP,2013-02-12 19:30:00,
2013-02-12 13:35:00,52.0,36.2,29.99,East,90,2.0,2.9,55,0.00,,,0.00,WUHU21623XXSP,2013-02-12 19:35:00,
2013-02-12 13:40:00,52.0,35.8,29.99,ESE,112,0.7,3.4,54,0.00,,,0.00,WUHU21623XXSP,2013-02-12 19:40:00,
2013-02-12 13:45:00,52.0,35.3,29.99,ESE,112,1.3,3.4,53,0.00,,,0.00,WUHU21623XXSP,2013-02-12 19:45:00,
2013-02-12 13:50:00,52.0,35.3,29.98,ENE,67,2.9,2.9,53,0.00,,,0.00,WUHU21623XXSP,2013-02-12 19:50:00,
2013-02-12 13:55:00,52.0,35.3,29.96,ESE,112,3.4,4.7,53,0.00,,,0.00,WUHU21623XXSP,2013-02-12 19:55:00,
2013-02-12 14:00:00,52.2,35.5,29.96,East,90,4.3,4.7,53,0.00,,,0.00,WUHU21623XXSP,2013-02-12 20:00:00,
2013-02-12 14:05:00,52.2,35.5,29.95,East,90,1.1,4.5,53,0.00,,,0.00,WUHU21623XXSP,2013-02-12 20:05:00,
2013-02-12 14:10:00,52.5,35.8,29.94,ENE,67,4.3,4.3,53,0.00,,,0.00,WUHU21623XXSP,2013-02-12 20:10:00,
2013-02-12 14:15:00,52.7,35.1,29.94,East,90,2.7,4.3,51,0.00,,,0.00,WUHU21623XXSP,2013-02-12 20:15:00,
2013-02-12 14:20:00,52.7,35.1,29.94,SE,135,5.6,5.6,51,0.00,,,0.00,WUHU21623XXSP,2013-02-12 20:20:00,
2013-02-12 14:25:00,52.7,35.1,29.94,ESE,112,3.1,5.6,51,0.00,,,0.00,WUHU21623XXSP,2013-02-12 20:25:00,
2013-02-12 14:30:00,52.9,35.2,29.92,East,90,2.5,3.1,51,0.00,,,0.00,WUHU21623XXSP,2013-02-12 20:30:00,
2013-02-12 14:35:00,53.1,35.4,29.92,ENE,67,0.9,3.1,51,0.00,,,0.00,WUHU21623XXSP,2013-02-12 20:35:00,
2013-02-12 14:40:00,53.2,35.5,29.93,East,90,4.7,4.7,51,0.00,,,0.00,WUHU21623XXSP,2013-02-12 20:40:00,
2013-02-12 14:45:00,53.2,35.1,29.91,East,90,2.0,4.7,50,0.00,,,0.00,WUHU21623XXSP,2013-02-12 20:45:00,
2013-02-12 14:50:00,53.2,35.1,29.92,NE,45,2.2,3.8,50,0.00,,,0.00,WUHU21623XXSP,2013-02-12 20:50:00,
2013-02-12 14:55:00,53.1,34.9,29.93,ENE,67,0.0,3.8,50,0.00,,,0.00,WUHU21623XXSP,2013-02-12 20:55:00,
2013-02-12 15:00:00,52.9,34.8,29.93,East,90,2.0,3.4,50,0.00,,,0.00,WUHU21623XXSP,2013-02-12 21:00:00,
2013-02-12 15:05:00,52.7,34.6,29.92,ENE,67,3.1,3.1,50,0.00,,,0.00,WUHU21623XXSP,2013-02-12 21:05:00,
2013-02-12 15:10:00,52.5,34.9,29.90,East,90,3.6,3.6,51,0.00,,,0.00,WUHU21623XXSP,2013-02-12 21:10:00,
2013-02-12 15:15:00,52.3,35.6,29.89,East,90,2.0,3.6,53,0.00,,,0.00,WUHU21623XXSP,2013-02-12 21:15:00,
2013-02-12 15:20:00,52.2,35.5,29.88,East,90,0.9,3.6,53,0.00,,,0.00,WUHU21623XXSP,2013-02-12 21:20:00,
2013-02-12 15:25:00,51.4,35.3,29.89,ENE,67,2.2,3.4,54,0.00,,,0.00,WUHU21623XXSP,2013-02-12 21:25:00,
2013-02-12 15:30:00,51.3,35.1,29.89,NE,45,3.6,3.6,54,0.00,,,0.00,WUHU21623XXSP,2013-02-12 21:30:00,
2013-02-12 15:35:00,51.1,35.4,29.89,ESE,112,0.0,3.6,55,0.00,,,0.00,WUHU21623XXSP,2013-02-12 21:35:00,
2013-02-12 15:40:00,50.9,35.2,29.89,East,90,0.0,3.6,55,0.00,,,0.00,WUHU21623XXSP,2013-02-12 21:40:00,
2013-02-12 15:45:00,50.7,35.5,29.90,NE,45,3.4,3.6,56,0.00,,,0.00,WUHU21623XXSP,2013-02-12 21:45:00,
2013-02-12 15:50:00,50.7,36.9,29.89,East,90,0.0,4.3,59,0.00,,,0.00,WUHU21623XXSP,2013-02-12 21:50:00,
2013-02-12 15:55:00,50.4,36.6,29.90,SE,135,0.0,4.9,59,0.00,,,0.00,WUHU21623XXSP,2013-02-12 21:55:00,
2013-02-12 16:00:00,50.4,37.0,29.90,SE,135,2.0,4.9,60,0.00,,,0.00,WUHU21623XXSP,2013-02-12 22:00:00,
2013-02-12 16:05:00,50.2,36.8,29.88,ESE,112,7.4,7.4,60,0.00,,,0.00,WUHU21623XXSP,2013-02-12 22:05:00,
2013-02-12 16:10:00,50.2,36.8,29.87,SE,135,1.6,7.4,60,0.00,,,0.00,WUHU21623XXSP,2013-02-12 22:10:00,
2013-02-12 16:15:00,50.0,37.1,29.87,ESE,112,2.9,3.8,61,0.00,,,0.00,WUHU21623XXSP,2013-02-12 22:15:00,
2013-02-12 16:20:00,49.5,37.0,29.87,SE,135,6.3,16.3,62,0.00,,,0.00,WUHU21623XXSP,2013-02-12 22:20:00,
2013-02-12 16:25:00,49.1,36.6,29.88,ESE,112,7.8,16.3,62,0.00,,,0.00,WUHU21623XXSP,2013-02-12 22:25:00,
2013-02-12 16:30:00,48.6,36.3,29.88,SE,135,1.6,7.8,63,0.00,,,0.00,WUHU21623XXSP,2013-02-12 22:30:00,
2013-02-12 16:35:00,48.4,36.7,29.88,SE,135,3.6,6.7,64,0.00,,,0.00,WUHU21623XXSP,2013-02-12 22:35:00,
2013-02-12 16:40:00,48.0,36.4,29.88,ENE,67,0.9,6.7,64,0.00,,,0.00,WUHU21623XXSP,2013-02-12 22:40:00,
2013-02-12 16:45:00,47.8,36.2,29.88,ENE,67,2.9,2.9,64,0.00,,,0.00,WUHU21623XXSP,2013-02-12 22:45:00,
2013-02-12 16:50:00,47.7,36.0,29.88,ESE,112,3.1,4.5,64,0.00,,,0.00,WUHU21623XXSP,2013-02-12 22:50:00,
2013-02-12 16:55:00,47.7,36.0,29.88,SE,135,4.0,4.5,64,0.00,,,0.00,WUHU21623XXSP,2013-02-12 22:55:00,
2013-02-12 17:00:00,47.3,35.7,29.88,ESE,112,0.0,4.0,64,0.00,,,0.00,WUHU21623XXSP,2013-02-12 23:00:00,
2013-02-12 17:05:00,47.3,35.7,29.89,East,90,0.0,3.1,64,0.00,,,0.00,WUHU21623XXSP,2013-02-12 23:05:00,
2013-02-12 17:10:00,47.1,35.9,29.90,East,90,0.0,3.1,65,0.00,,,0.00,WUHU21623XXSP,2013-02-12 23:10:00,
2013-02-12 17:15:00,47.1,35.9,29.90,East,90,0.0,1.6,65,0.00,,,0.00,WUHU21623XXSP,2013-02-12 23:15:00,
2013-02-12 17:20:00,46.9,35.7,29.89,East,90,0.0,0.0,65,0.00,,,0.00,WUHU21623XXSP,2013-02-12 23:20:00,
2013-02-12 17:25:00,46.9,35.7,29.89,East,90,0.0,2.5,65,0.00,,,0.00,WUHU21623XXSP,2013-02-12 23:25:00,
2013-02-12 17:30:00,46.8,35.6,29.89,East,90,0.0,2.7,65,0.00,,,0.00,WUHU21623XXSP,2013-02-12 23:30:00,
2013-02-12 17:35:00,46.6,35.8,29.91,ENE,67,0.0,2.7,66,0.00,,,0.00,WUHU21623XXSP,2013-02-12 23:35:00,
2013-02-12 17:40:00,46.6,35.8,29.89,East,90,2.7,2.7,66,0.00,,,0.00,WUHU21623XXSP,2013-02-12 23:40:00,
2013-02-12 17:45:00,46.6,35.8,29.90,ENE,67,0.0,2.7,66,0.00,,,0.00,WUHU21623XXSP,2013-02-12 23:45:00,
2013-02-12 17:50:00,46.6,35.8,29.90,ESE,112,2.7,2.7,66,0.00,,,0.00,WUHU21623XXSP,2013-02-12 23:50:00,
2013-02-12 17:55:00,46.6,35.8,29.89,ENE,67,0.0,2.7,66,0.00,,,0.00,WUHU21623XXSP,2013-02-12 23:55:00,
2013-02-12 18:00:00,46.4,36.0,29.89,ENE,67,0.7,2.7,67,0.00,,,0.00,WUHU21623XXSP,2013-02-13 00:00:00,
2013-02-12 18:05:00,46.2,35.9,29.88,ENE,67,0.7,1.8,67,0.00,,,0.00,WUHU21623XXSP,2013-02-13 00:05:00,
2013-02-12 18:10:00,46.0,35.7,29.89,ENE,67,0.0,1.8,67,0.00,,,0.00,WUHU21623XXSP,2013-02-13 00:10:00,
2013-02-12 18:15:00,46.2,35.9,29.88,ENE,67,0.0,0.0,67,0.00,,,0.00,WUHU21623XXSP,2013-02-13 00:15:00,
2013-02-12 18:20:00,46.0,35.7,29.88,ENE,67,1.6,2.9,67,0.00,,,0.00,WUHU21623XXSP,2013-02-13 00:20:00,
2013-02-12 18:25:00,46.0,36.1,29.87,ENE,67,1.3,2.9,68,0.00,,,0.00,WUHU21623XXSP,2013-02-13 00:25:00,
2013-02-12 18:30:00,46.0,36.1,29.87,ENE,67,3.8,3.8,68,0.00,,,0.00,WUHU21623XXSP,2013-02-13 00:30:00,
2013-02-12 18:35:00,45.9,35.9,29.87,ENE,67,1.8,3.8,68,0.00,,,0.00,WUHU21623XXSP,2013-02-13 00:35:00,
2013-02-12 18:40:00,45.9,35.9,29.87,ENE,67,1.8,2.0,68,0.00,,,0.00,WUHU21623XXSP,2013-02-13 00:40:00,
2013-02-12 18:45:00,45.7,36.1,29.88,East,90,0.0,1.8,69,0.00,,,0.00,WUHU21623XXSP,2013-02-13 00:45:00,
2013-02-12 18:50:00,45.7,36.1,29.87,East,90,3.4,3.4,69,0.00,,,0.00,WUHU21623XXSP,2013-02-13 00:50:00,
2013-02-12 18:55:00,45.5,35.9,29.87,NE,45,3.1,3.4,69,0.00,,,0.00,WUHU21623XXSP,2013-02-13 00:55:00,
2013-02-12 19:00:00,45.5,35.9,29.87,ENE,67,0.0,3.1,69,0.00,,,0.00,WUHU21623XXSP,2013-02-13 01:00:00,
2013-02-12 19:05:00,45.5,35.9,29.87,ENE,67,3.1,3.1,69,0.00,,,0.00,WUHU21623XXSP,2013-02-13 01:05:00,
2013-02-12 19:10:00,45.5,35.9,29.86,ESE,112,2.0,3.1,69,0.00,,,0.00,WUHU21623XXSP,2013-02-13 01:10:00,
2013-02-12 19:15:00,45.7,36.1,29.86,ESE,112,2.7,3.1,69,0.00,,,0.00,WUHU21623XXSP,2013-02-13 01:15:00,
2013-02-12 19:20:00,45.5,35.9,29.85,East,90,4.0,4.0,69,0.00,,,0.00,WUHU21623XXSP,2013-02-13 01:20:00,
2013-02-12 19:25:00,45.7,36.1,29.85,ESE,112,5.8,5.8,69,0.00,,,0.00,WUHU21623XXSP,2013-02-13 01:25:00,
2013-02-12 19:30:00,45.5,35.9,29.85,ENE,67,2.5,5.8,69,0.00,,,0.00,WUHU21623XXSP,2013-02-13 01:30:00,
2013-02-12 19:35:00,45.5,35.9,29.85,ENE,67,2.9,4.9,69,0.00,,,0.00,WUHU21623XXSP,2013-02-13 01:35:00,
2013-02-12 19:40:00,45.5,35.9,29.84,ESE,112,2.0,3.4,69,0.00,,,0.00,WUHU21623XXSP,2013-02-13 01:40:00,
2013-02-12 19:45:00,45.5,35.9,29.84,ESE,112,4.9,5.1,69,0.00,,,0.00,WUHU21623XXSP,2013-02-13 01:45:00,
2013-02-12 19:50:00,45.5,35.9,29.83,East,90,3.6,5.1,69,0.00,,,0.00,WUHU21623XXSP,2013-02-13 01:50:00,
2013-02-12 19:55:00,45.7,36.1,29.83,East,90,4.7,4.9,69,0.00,,,0.00,WUHU21623XXSP,2013-02-13 01:55:00,
2013-02-12 20:00:00,45.5,35.9,29.83,East,90,1.3,4.7,69,0.00,,,0.00,WUHU21623XXSP,2013-02-13 02:00:00,
2013-02-12 20:05:00,45.7,36.1,29.84,ESE,112,3.4,3.4,69,0.00,,,0.00,WUHU21623XXSP,2013-02-13 02:05:00,
2013-02-12 20:10:00,45.7,36.5,29.83,ESE,112,2.2,3.4,70,0.00,,,0.00,WUHU21623XXSP,2013-02-13 02:10:00,
2013-02-12 20:15:00,45.7,35.9,29.81,East,90,4.0,4.0,70,0.00,,,0.00,WUHU21623XXSP,2013-02-13 02:15:00,
2013-02-12 20:20:00,45.5,36.3,29.82,ESE,112,6.5,6.5,70,0.00,,,0.00,WUHU21623XXSP,2013-02-13 02:20:00,
2013-02-12 20:25:00,45.5,36.3,29.81,ESE,112,5.8,6.5,70,0.00,,,0.00,WUHU21623XXSP,2013-02-13 02:25:00,
2013-02-12 20:30:00,45.5,36.3,29.81,SE,135,6.7,6.7,70,0.00,,,0.00,WUHU21623XXSP,2013-02-13 02:30:00,
2013-02-12 20:35:00,45.5,36.3,29.80,East,90,2.0,6.7,70,0.00,,,0.00,WUHU21623XXSP,2013-02-13 02:35:00,
2013-02-12 20:40:00,45.5,36.3,29.81,ESE,112,4.5,4.5,70,0.00,,,0.00,WUHU21623XXSP,2013-02-13 02:40:00,
2013-02-12 20:45:00,45.5,36.7,29.80,East,90,2.2,5.8,71,0.00,,,0.00,WUHU21623XXSP,2013-02-13 02:45:00,
2013-02-12 20:50:00,45.5,36.7,29.80,ESE,112,4.7,6.0,71,0.00,,,0.00,WUHU21623XXSP,2013-02-13 02:50:00,
2013-02-12 20:55:00,45.5,36.7,29.79,ESE,112,8.3,8.3,71,0.00,,,0.00,WUHU21623XXSP,2013-02-13 02:55:00,
2013-02-12 21:00:00,45.5,36.7,29.79,ESE,112,2.9,8.3,71,0.00,,,0.00,WUHU21623XXSP,2013-02-13 03:00:00,
2013-02-12 21:05:00,45.5,36.7,29.79,ESE,112,7.6,7.6,71,0.00,,,0.00,WUHU21623XXSP,2013-02-13 03:05:00,
2013-02-12 21:10:00,45.5,36.7,29.79,East,90,6.3,7.6,71,0.00,,,0.00,WUHU21623XXSP,2013-02-13 03:10:00,
2013-02-12 21:15:00,45.5,36.7,29.79,ENE,67,3.1,7.6,71,0.00,,,0.00,WUHU21623XXSP,2013-02-13 03:15:00,
2013-02-12 21:20:00,45.5,36.7,29.79,ESE,112,1.1,5.8,71,0.00,,,0.00,WUHU21623XXSP,2013-02-13 03:20:00,
2013-02-12 21:25:00,45.5,37.0,29.80,East,90,2.9,4.3,72,0.00,,,0.00,WUHU21623XXSP,2013-02-13 03:25:00,
2013-02-12 21:30:00,45.5,37.0,29.80,SE,135,0.0,4.3,72,0.00,,,0.00,WUHU21623XXSP,2013-02-13 03:30:00,
2013-02-12 21:35:00,45.5,37.0,29.80,ENE,67,1.3,4.3,72,0.00,,,0.00,WUHU21623XXSP,2013-02-13 03:35:00,
2013-02-12 21:40:00,45.5,37.0,29.80,NE,45,0.0,2.5,72,0.00,,,0.00,WUHU21623XXSP,2013-02-13 03:40:00,
2013-02-12 21:45:00,45.5,37.0,29.81,ENE,67,0.7,2.5,72,0.00,,,0.00,WUHU21623XXSP,2013-02-13 03:45:00,
2013-02-12 21:50:00,45.5,36.7,29.81,ENE,67,0.0,0.7,71,0.00,,,0.00,WUHU21623XXSP,2013-02-13 03:50:00,
2013-02-12 21:55:00,45.3,36.8,29.81,ENE,67,0.0,0.0,72,0.00,,,0.00,WUHU21623XXSP,2013-02-13 03:55:00,
2013-02-12 22:00:00,45.5,37.0,29.80,NE,45,0.0,0.0,72,0.00,,,0.00,WUHU21623XXSP,2013-02-13 04:00:00,
2013-02-12 22:05:00,45.3,36.8,29.81,SE,135,5.8,5.8,72,0.00,,,0.00,WUHU21623XXSP,2013-02-13 04:05:00,
2013-02-12 22:10:00,45.3,37.2,29.81,SE,135,0.0,5.8,73,0.00,,,0.00,WUHU21623XXSP,2013-02-13 04:10:00,
2013-02-12 22:15:00,45.1,37.0,29.82,SE,135,0.0,0.0,73,0.00,,,0.00,WUHU21623XXSP,2013-02-13 04:15:00,
2013-02-12 22:20:00,45.1,37.0,29.82,SW,225,0.0,0.0,73,0.00,,,0.00,WUHU21623XXSP,2013-02-13 04:20:00,
2013-02-12 22:25:00,45.1,37.0,29.83,WSW,247,0.0,0.0,73,0.00,,,0.00,WUHU21623XXSP,2013-02-13 04:25:00,
2013-02-12 22:30:00,45.1,37.0,29.82,WSW,247,0.0,0.0,73,0.00,,,0.00,WUHU21623XXSP,2013-02-13 04:30:00,
2013-02-12 22:35:00,45.0,36.8,29.82,SW,225,0.0,0.0,73,0.00,,,0.00,WUHU21623XXSP,2013-02-13 04:35:00,
2013-02-12 22:40:00,45.0,36.8,29.81,SW,225,0.0,0.0,73,0.00,,,0.00,WUHU21623XXSP,2013-02-13 04:40:00,
2013-02-12 22:45:00,45.0,37.1,29.81,WSW,247,0.0,0.0,74,0.00,,,0.00,WUHU21623XXSP,2013-02-13 04:45:00,
2013-02-12 22:50:00,44.6,37.1,29.81,WSW,247,0.0,0.0,75,0.00,,,0.00,WUHU21623XXSP,2013-02-13 04:50:00,
2013-02-12 22:55:00,44.2,37.1,29.81,WSW,247,0.0,0.0,76,0.00,,,0.00,WUHU21623XXSP,2013-02-13 04:55:00,
2013-02-12 23:00:00,44.2,37.1,29.81,WSW,247,0.0,0.0,76,0.00,,,0.00,WUHU21623XXSP,2013-02-13 05:00:00,
2013-02-12 23:05:00,44.1,37.0,29.81,WSW,247,0.0,0.0,76,0.00,,,0.00,WUHU21623XXSP,2013-02-13 05:05:00,
2013-02-12 23:10:00,43.7,36.6,29.80,WSW,247,0.0,0.0,76,0.00,,,0.00,WUHU21623XXSP,2013-02-13 05:10:00,
2013-02-12 23:15:00,43.7,36.6,29.80,WSW,247,0.0,0.0,76,0.00,,,0.00,WUHU21623XXSP,2013-02-13 05:15:00,
2013-02-12 23:20:00,43.5,36.4,29.80,WSW,247,0.0,0.0,76,0.00,,,0.00,WUHU21623XXSP,2013-02-13 05:20:00,
2013-02-12 23:25:00,43.5,36.8,29.81,WSW,247,0.0,0.0,77,0.00,,,0.00,WUHU21623XXSP,2013-02-13 05:25:00,
2013-02-12 23:30:00,43.5,36.8,29.81,WSW,247,0.0,0.0,77,0.00,,,0.00,WUHU21623XXSP,2013-02-13 05:30:00,
2013-02-12 23:35:00,43.3,36.9,29.80,WSW,247,0.0,0.0,78,0.00,,,0.00,WUHU21623XXSP,2013-02-13 05:35:00,
2013-02-12 23:40:00,43.2,37.1,29.80,WSW,247,0.0,0.0,79,0.00,,,0.00,WUHU21623XXSP,2013-02-13 05:40:00,
2013-02-12 23:45:00,43.2,37.1,29.80,WSW,247,0.0,0.0,79,0.00,,,0.00,WUHU21623XXSP,2013-02-13 05:45:00,
2013-02-12 23:50:00,43.0,36.9,29.80,WSW,247,0.0,0.0,79,0.00,,,0.00,WUHU21623XXSP,2013-02-13 05:50:00,
2013-02-12 23:55:00,43.0,36.9,29.80,WSW,247,0.0,0.0,79,0.00,,,0.00,WUHU21623XXSP,2013-02-13 05:55:00,